This is the latest recevied weather packets stored in our database for station/object OK2JF-6. If no packets are shown the sender has not sent any weather packets the latest 10 day(s).
| Time | Temp. | Humidity | Pressure | Rain* | Wind** | Luminosity | Snow |
|---|---|---|---|---|---|---|---|
| 1776930184 | 11.67° C | 56% | 1092.5 hPa | 0 mm | - | 295 W/m² | - |
| 1776929897 | 11.11° C | 58% | 1093 hPa | 0 mm | - | 266 W/m² | - |
| 1776929538 | 10° C | 61% | 1092.8 hPa | 0 mm | - | 280 W/m² | - |
| 1776928863 | 8.89° C | 62% | 1092.8 hPa | 0 mm | - | 183 W/m² | - |
| 1776928383 | 8.33° C | 63% | 1092.8 hPa | 0 mm | - | 164 W/m² | - |
| 1776927963 | 8.33° C | 62% | 1092.8 hPa | 0 mm | - | 115 W/m² | - |
| 1776927543 | 8.33° C | 62% | 1092.8 hPa | 0 mm | - | 152 W/m² | - |
| 1776927498 | 8.33° C | 62% | 1092.8 hPa | 0 mm | - | 146 W/m² | - |
| 1776927257 | 8.33° C | 62% | 1092.8 hPa | 0 mm | - | 166 W/m² | - |
| 1776926823 | 7.78° C | 63% | 1092.6 hPa | 0 mm | - | 146 W/m² | - |
| 1776926463 | 7.78° C | 63% | 1092.8 hPa | 0 mm | - | 140 W/m² | - |
| 1776925503 | 6.67° C | 65% | 1092.8 hPa | 0 mm | - | 127 W/m² | - |
| 1776925443 | 6.67° C | 65% | 1092.6 hPa | 0 mm | - | 119 W/m² | - |
| 1776924843 | 6.67° C | 65% | 1092.7 hPa | 0 mm | - | 117 W/m² | - |
| 1776924423 | 6.11° C | 68% | 1092.6 hPa | 0 mm | - | 119 W/m² | - |
| 1776923943 | 5.56° C | 70% | 1092.7 hPa | 0 mm | - | 119 W/m² | - |
| 1776922817 | 4.44° C | 74% | 1092.9 hPa | 0 mm | - | 76 W/m² | - |
| 1776922623 | 3.89° C | 76% | 1092.8 hPa | 0 mm | - | 82 W/m² | - |
| 1776922323 | 3.89° C | 77% | 1092.9 hPa | 0 mm | - | 78 W/m² | - |
| 1776922263 | 3.89° C | 77% | 1092.7 hPa | 0 mm | - | 70 W/m² | - |
| 1776922143 | 3.33° C | 77% | 1092.8 hPa | 0 mm | - | 62 W/m² | - |
| 1776921363 | 2.78° C | 79% | 1093.1 hPa | 0 mm | - | 41 W/m² | - |
| 1776921123 | 2.78° C | 79% | 1093 hPa | 0 mm | - | 35 W/m² | - |
| 1776921063 | 2.78° C | 79% | 1093 hPa | 0 mm | - | 35 W/m² | - |
| 1776920823 | 2.78° C | 80% | 1092.9 hPa | 0 mm | - | 34 W/m² | - |
* Rain latest hour (hover to see other rain measurements)
** Current wind speed in m/s (hover to see current wind gust speed)